createdAt,value
2019-04-03T00:00:14.723Z,9.13
2019-04-03T00:02:45.144Z,10.40
2019-04-03T00:05:15.687Z,12.40
2019-04-03T00:07:46.137Z,7.83
2019-04-03T00:10:16.486Z,8.27
2019-04-03T00:12:46.821Z,8.90
2019-04-03T00:15:17.251Z,6.93
2019-04-03T00:17:47.522Z,7.00
2019-04-03T00:20:19.155Z,6.17
2019-04-03T00:22:51.388Z,6.90
2019-04-03T00:25:22.397Z,6.83
2019-04-03T00:27:54.163Z,7.10
2019-04-03T00:30:24.430Z,7.27
2019-04-03T00:32:54.786Z,7.77
2019-04-03T00:35:25.138Z,7.73
2019-04-03T00:37:55.805Z,6.67
2019-04-03T00:40:26.357Z,8.10
2019-04-03T00:42:56.646Z,8.10
2019-04-03T00:45:27.039Z,7.40
2019-04-03T00:47:57.299Z,7.77
2019-04-03T00:50:27.603Z,7.17
2019-04-03T00:52:58.043Z,6.87
2019-04-03T00:55:28.378Z,7.37
2019-04-03T00:57:58.857Z,8.97
2019-04-03T01:00:29.446Z,9.47
2019-04-03T01:03:01.461Z,9.90
2019-04-03T01:05:31.764Z,10.00
2019-04-03T01:08:02.212Z,8.67
2019-04-03T01:10:32.546Z,7.57
2019-04-03T01:13:02.913Z,10.40
2019-04-03T01:15:33.455Z,7.17
2019-04-03T01:18:05.163Z,6.27
2019-04-03T01:20:36.290Z,5.87
2019-04-03T01:23:07.259Z,6.53
2019-04-03T01:25:39.694Z,6.43
2019-04-03T01:28:11.757Z,5.40
2019-04-03T01:30:44.114Z,4.90
2019-04-03T01:33:14.815Z,4.00
2019-04-03T01:35:47.480Z,5.70
2019-04-03T01:38:19.554Z,4.33
2019-04-03T01:40:50.963Z,4.10
2019-04-03T01:43:23.213Z,4.60
2019-04-03T01:45:56.501Z,4.33
2019-04-03T01:48:28.105Z,5.97
2019-04-03T01:50:59.482Z,3.97
2019-04-03T01:53:32.702Z,3.77
2019-04-03T01:56:05.071Z,3.20
2019-04-03T01:58:36.486Z,4.73
2019-04-03T02:01:08.049Z,4.00
2019-04-03T02:03:41.192Z,3.43
2019-04-03T02:06:13.286Z,4.47
2019-04-03T02:08:45.308Z,3.57
2019-04-03T02:11:18.085Z,4.80
2019-04-03T02:13:50.968Z,4.23
2019-04-03T02:16:38.341Z,3.40
2019-04-03T02:19:09.615Z,3.80
2019-04-03T02:21:39.914Z,4.03
2019-04-03T02:24:10.318Z,3.63
2019-04-03T02:26:40.622Z,3.67
2019-04-03T02:29:10.897Z,3.83
2019-04-03T02:31:41.142Z,4.07
2019-04-03T02:34:11.495Z,3.50
2019-04-03T02:36:44.422Z,3.30
2019-04-03T02:39:14.913Z,4.87
2019-04-03T02:41:45.564Z,3.37
2019-04-03T02:44:17.936Z,3.47
2019-04-03T02:46:48.195Z,6.57
2019-04-03T02:49:18.779Z,3.67
2019-04-03T02:51:51.875Z,4.47
2019-04-03T02:54:28.938Z,3.97
2019-04-03T02:56:59.238Z,5.20
2019-04-03T02:59:31.155Z,3.43
2019-04-03T03:02:01.417Z,4.20
2019-04-03T03:04:31.715Z,3.63
2019-04-03T03:07:04.437Z,3.50
2019-04-03T03:09:35.376Z,3.87
2019-04-03T03:12:06.055Z,3.77
2019-04-03T03:14:39.253Z,3.30
2019-04-03T03:17:10.094Z,3.80
2019-04-03T03:19:40.786Z,4.13
2019-04-03T03:22:22.911Z,3.73
2019-04-03T03:24:54.494Z,4.50
2019-04-03T03:27:25.520Z,3.50
2019-04-03T03:29:59.817Z,3.70
2019-04-03T03:32:35.438Z,3.47
2019-04-03T03:35:12.347Z,3.83
2019-04-03T03:37:36.548Z,5.77
2019-04-03T03:40:07.293Z,3.93
2019-04-03T03:42:38.134Z,4.80
2019-04-03T03:45:09.054Z,3.40
2019-04-03T03:47:39.376Z,3.83
2019-04-03T03:50:10.673Z,3.83
2019-04-03T03:52:41.804Z,6.53
2019-04-03T03:55:12.461Z,5.10
2019-04-03T03:57:43.053Z,4.57
2019-04-03T04:00:13.381Z,5.90
2019-04-03T04:02:45.074Z,4.33
2019-04-03T04:05:20.033Z,4.27
2019-04-03T04:07:47.982Z,4.40
2019-04-03T04:10:18.563Z,4.43
2019-04-03T04:12:49.239Z,4.80
2019-04-03T04:15:20.367Z,4.97
2019-04-03T04:17:51.848Z,4.87
2019-04-03T04:20:22.277Z,4.97
2019-04-03T04:22:53.184Z,3.93
2019-04-03T04:25:23.841Z,5.20
2019-04-03T04:27:54.516Z,5.83
2019-04-03T04:30:24.807Z,5.47
2019-04-03T04:32:55.540Z,4.53
2019-04-03T04:35:25.790Z,5.30
2019-04-03T04:37:56.712Z,4.27
2019-04-03T04:40:27.293Z,5.17
2019-04-03T04:42:57.941Z,4.70
2019-04-03T04:45:28.174Z,5.57
2019-04-03T04:47:58.549Z,6.00
2019-04-03T04:50:28.883Z,5.43
2019-04-03T04:52:59.455Z,6.27
2019-04-03T04:55:31.337Z,5.97
2019-04-03T04:58:04.763Z,7.63
2019-04-03T05:00:35.277Z,7.47
2019-04-03T05:03:05.619Z,7.50
2019-04-03T05:05:36.104Z,9.63
2019-04-03T05:08:06.664Z,7.83
2019-04-03T05:10:37.397Z,7.00
2019-04-03T05:13:07.889Z,7.43
2019-04-03T05:15:38.455Z,8.33
2019-04-03T05:18:08.961Z,7.67
2019-04-03T05:20:39.285Z,6.87
2019-04-03T05:23:09.641Z,6.70
2019-04-03T05:25:40.114Z,7.50
2019-04-03T05:28:10.506Z,6.63
2019-04-03T05:30:41.076Z,6.80
2019-04-03T05:33:11.869Z,6.73
2019-04-03T05:35:42.292Z,6.03
2019-04-03T05:38:12.835Z,7.50
2019-04-03T05:40:44.694Z,7.07
2019-04-03T05:43:15.067Z,6.40
2019-04-03T05:45:45.327Z,6.33
2019-04-03T05:48:17.739Z,7.00
2019-04-03T05:50:47.756Z,8.03
2019-04-03T05:53:18.014Z,6.93
2019-04-03T05:55:48.354Z,7.27
2019-04-03T05:58:22.732Z,6.50
2019-04-03T06:01:03.535Z,6.10
2019-04-03T06:03:38.160Z,5.83
2019-04-03T06:05:58.387Z,8.17
2019-04-03T06:08:28.785Z,7.03
2019-04-03T06:10:59.409Z,6.60
2019-04-03T06:13:31.524Z,7.70
2019-04-03T06:16:02.087Z,6.17
2019-04-03T06:18:32.518Z,5.10
2019-04-03T06:21:03.354Z,4.93
2019-04-03T06:23:36.696Z,7.50
2019-04-03T06:26:07.427Z,5.10
2019-04-03T06:28:37.769Z,4.67
2019-04-03T06:31:08.844Z,5.77
2019-04-03T06:33:40.089Z,4.90
2019-04-03T06:36:10.427Z,4.87
2019-04-03T06:38:40.959Z,5.53
2019-04-03T06:41:11.443Z,6.83
2019-04-03T06:44:00.862Z,5.23
2019-04-03T06:46:31.224Z,6.73
2019-04-03T06:49:02.394Z,6.13
2019-04-03T06:51:44.889Z,6.33
2019-04-03T06:54:15.257Z,8.20
2019-04-03T06:56:45.660Z,6.70
2019-04-03T06:59:16.573Z,8.73
2019-04-03T07:01:47.352Z,10.43
2019-04-03T07:04:17.797Z,9.67
2019-04-03T07:06:50.028Z,17.83
2019-04-03T07:09:23.524Z,11.40
2019-04-03T07:11:52.372Z,8.23
2019-04-03T07:14:24.125Z,8.27
2019-04-03T07:16:54.560Z,6.70
2019-04-03T07:19:25.251Z,7.83
2019-04-03T07:21:55.974Z,6.67
2019-04-03T07:24:27.513Z,9.67
2019-04-03T07:26:57.792Z,9.80
2019-04-03T07:29:28.071Z,11.53
2019-04-03T07:31:58.344Z,9.13
2019-04-03T07:34:28.738Z,7.17
2019-04-03T07:36:59.291Z,8.50
2019-04-03T07:39:29.807Z,8.37
2019-04-03T07:42:00.453Z,13.20
2019-04-03T07:44:30.782Z,7.17
2019-04-03T07:47:03.276Z,9.97
2019-04-03T07:49:33.722Z,7.73
2019-04-03T07:52:04.280Z,12.80
2019-04-03T07:54:34.774Z,9.13
2019-04-03T07:57:05.271Z,10.43
2019-04-03T07:59:35.914Z,13.87
2019-04-03T08:02:06.539Z,9.00
2019-04-03T08:04:36.975Z,12.43
2019-04-03T08:07:08.359Z,11.90
2019-04-03T08:09:38.663Z,10.10
2019-04-03T08:12:09.006Z,10.43
2019-04-03T08:14:41.130Z,12.63
2019-04-03T08:17:11.563Z,13.30
2019-04-03T08:19:44.924Z,12.80
2019-04-03T08:22:14.015Z,15.43
2019-04-03T08:24:44.336Z,11.80
2019-04-03T08:27:14.870Z,13.27
2019-04-03T08:29:45.425Z,12.80
2019-04-03T08:32:17.678Z,11.13
2019-04-03T08:34:50.407Z,11.20
2019-04-03T08:37:29.564Z,12.27
2019-04-03T08:39:57.683Z,13.63
2019-04-03T08:42:32.889Z,12.50
2019-04-03T08:45:06.149Z,12.93
2019-04-03T08:47:37.730Z,11.30
2019-04-03T08:50:11.723Z,12.30
2019-04-03T08:52:42.476Z,13.23
2019-04-03T08:55:14.815Z,12.17
2019-04-03T08:57:46.866Z,13.23
2019-04-03T09:00:22.880Z,12.40
2019-04-03T09:02:54.914Z,11.97
2019-04-03T09:05:25.587Z,10.73
2019-04-03T09:07:56.855Z,11.27
2019-04-03T09:10:32.687Z,10.33
2019-04-03T09:13:16.086Z,10.33
2019-04-03T09:15:40.248Z,9.10
2019-04-03T09:18:10.777Z,7.50
2019-04-03T09:20:47.521Z,7.60
2019-04-03T09:23:20.984Z,7.47
2019-04-03T09:25:57.257Z,5.00
2019-04-03T09:28:30.152Z,5.00
2019-04-03T09:31:03.950Z,4.27
2019-04-03T09:33:37.032Z,4.50
2019-04-03T09:36:07.987Z,3.57
2019-04-03T09:38:42.930Z,3.80
2019-04-03T09:41:17.121Z,3.07
2019-04-03T09:43:48.941Z,2.80
2019-04-03T09:46:21.657Z,2.47
2019-04-03T09:48:52.122Z,4.50
2019-04-03T09:51:23.017Z,2.40
2019-04-03T09:53:53.695Z,2.90
2019-04-03T09:56:24.067Z,3.00
2019-04-03T09:58:56.178Z,2.10
2019-04-03T10:01:26.651Z,2.17
2019-04-03T10:03:57.042Z,2.07
2019-04-03T10:06:30.514Z,2.40
2019-04-03T10:08:59.950Z,2.60
2019-04-03T10:11:30.259Z,2.37
2019-04-03T10:14:00.762Z,2.30
2019-04-03T10:16:31.018Z,2.30
2019-04-03T10:19:01.594Z,2.00
2019-04-03T10:21:33.737Z,2.20
2019-04-03T10:24:04.264Z,2.30
2019-04-03T10:26:35.567Z,2.20
2019-04-03T10:29:06.030Z,1.80
2019-04-03T10:31:36.404Z,2.20
2019-04-03T10:34:07.184Z,2.50
2019-04-03T10:36:37.599Z,2.10
2019-04-03T10:39:10.364Z,2.00
2019-04-03T10:41:40.637Z,2.43
2019-04-03T10:44:10.992Z,3.60
2019-04-03T10:46:41.259Z,2.53
2019-04-03T10:49:12.145Z,3.97
2019-04-03T10:51:42.689Z,5.13
2019-04-03T10:54:13.272Z,2.07
2019-04-03T10:56:45.192Z,2.27
2019-04-03T10:59:18.067Z,2.33
2019-04-03T11:01:48.088Z,2.20
2019-04-03T11:04:21.761Z,3.00
2019-04-03T11:06:52.227Z,4.63
2019-04-03T11:09:22.652Z,2.10
2019-04-03T11:11:53.179Z,2.27
2019-04-03T11:14:23.832Z,2.03
2019-04-03T11:16:55.813Z,2.57
2019-04-03T11:19:26.494Z,2.77
2019-04-03T11:21:57.197Z,2.20
2019-04-03T11:24:28.042Z,3.17
2019-04-03T11:26:58.392Z,3.27
2019-04-03T11:29:28.748Z,4.13
2019-04-03T11:31:59.104Z,2.60
2019-04-03T11:34:29.440Z,4.33
2019-04-03T11:37:00.554Z,3.57
2019-04-03T11:39:33.552Z,2.40
2019-04-03T11:42:05.027Z,2.80
2019-04-03T11:44:35.340Z,4.23
2019-04-03T11:47:05.620Z,2.37
2019-04-03T11:49:36.576Z,2.53
2019-04-03T11:52:07.189Z,3.17
2019-04-03T11:54:39.498Z,4.70
2019-04-03T11:57:09.717Z,3.50
2019-04-03T11:59:40.347Z,2.50
2019-04-03T12:02:10.891Z,4.43
2019-04-03T12:04:43.220Z,2.90
2019-04-03T12:07:13.265Z,2.80
2019-04-03T12:09:43.888Z,2.43
2019-04-03T12:12:14.465Z,3.10
2019-04-03T12:14:44.945Z,4.27
2019-04-03T12:17:15.620Z,2.73
2019-04-03T12:19:47.176Z,2.40
2019-04-03T12:22:17.819Z,3.33
2019-04-03T12:24:48.537Z,2.80
2019-04-03T12:27:18.881Z,3.13
2019-04-03T12:29:50.163Z,3.20
2019-04-03T12:32:20.544Z,3.00
2019-04-03T12:34:51.030Z,2.63
2019-04-03T12:37:24.513Z,2.73
2019-04-03T12:39:55.455Z,2.80
2019-04-03T12:42:26.181Z,5.43
2019-04-03T12:44:56.644Z,3.80
2019-04-03T12:47:29.192Z,2.63
2019-04-03T12:49:59.996Z,2.83
2019-04-03T12:52:30.763Z,3.00
2019-04-03T12:55:01.980Z,3.53
2019-04-03T12:57:33.871Z,4.50
2019-04-03T13:00:05.681Z,3.00
2019-04-03T13:02:36.119Z,3.23
2019-04-03T13:05:07.855Z,3.10
2019-04-03T13:07:38.444Z,3.83
2019-04-03T13:10:09.170Z,3.73
2019-04-03T13:12:39.666Z,3.03
2019-04-03T13:15:10.603Z,3.23
2019-04-03T13:17:43.483Z,2.60
2019-04-03T13:20:15.673Z,4.40
2019-04-03T13:22:46.210Z,5.03
2019-04-03T13:25:20.209Z,2.90
2019-04-03T13:27:49.788Z,4.87
2019-04-03T13:30:20.331Z,3.87
2019-04-03T13:32:59.612Z,2.73
2019-04-03T13:35:24.291Z,3.50
2019-04-03T13:37:55.550Z,3.40
2019-04-03T13:40:27.743Z,3.00
2019-04-03T13:42:58.318Z,3.87
2019-04-03T13:45:31.066Z,4.40
2019-04-03T13:48:02.329Z,4.53
2019-04-03T13:50:32.678Z,5.37
2019-04-03T13:53:02.978Z,3.07
2019-04-03T13:55:35.009Z,2.73
2019-04-03T13:58:05.261Z,2.67
2019-04-03T14:00:36.037Z,3.87
2019-04-03T14:03:06.263Z,2.20
2019-04-03T14:05:36.956Z,2.70
2019-04-03T14:08:07.916Z,3.10
2019-04-03T14:10:38.688Z,3.73
2019-04-03T14:13:12.206Z,4.20
2019-04-03T14:15:42.174Z,2.60
2019-04-03T14:18:13.175Z,2.80
2019-04-03T14:20:43.683Z,3.20
2019-04-03T14:23:14.449Z,2.40
2019-04-03T14:25:44.810Z,2.53
2019-04-03T14:28:15.242Z,3.27
2019-04-03T14:30:45.831Z,2.73
2019-04-03T14:33:18.980Z,2.13
2019-04-03T14:35:52.647Z,2.10
2019-04-03T14:38:20.455Z,3.63
2019-04-03T14:40:50.784Z,2.30
2019-04-03T14:43:22.345Z,2.97
2019-04-03T14:45:53.315Z,2.07
2019-04-03T14:48:25.512Z,2.70
2019-04-03T14:50:55.641Z,1.70
2019-04-03T14:53:25.962Z,2.40
2019-04-03T14:55:56.321Z,2.40
2019-04-03T14:58:28.126Z,3.67
2019-04-03T15:00:58.585Z,2.63
2019-04-03T15:03:29.425Z,2.27
2019-04-03T15:06:00.364Z,2.70
2019-04-03T15:08:31.350Z,3.10
2019-04-03T15:11:03.011Z,2.60
2019-04-03T15:13:34.330Z,2.93
2019-04-03T15:16:06.404Z,2.63
2019-04-03T15:18:37.177Z,2.87
2019-04-03T15:21:07.792Z,5.00
2019-04-03T15:23:41.560Z,2.53
2019-04-03T15:26:10.351Z,5.27
2019-04-03T15:28:40.663Z,5.43
2019-04-03T15:31:11.967Z,4.10
2019-04-03T15:33:43.586Z,4.27
2019-04-03T15:36:13.991Z,4.80
2019-04-03T15:38:46.433Z,4.70
2019-04-03T15:41:17.209Z,3.50
2019-04-03T15:43:50.737Z,4.17
2019-04-03T15:46:19.857Z,2.40
2019-04-03T15:48:51.003Z,3.07
2019-04-03T15:51:23.122Z,2.70
2019-04-03T15:53:53.773Z,3.93
2019-04-03T15:56:24.283Z,4.67
2019-04-03T15:58:55.038Z,3.87
2019-04-03T16:01:27.015Z,4.53
2019-04-03T16:03:59.065Z,3.27
2019-04-03T16:06:29.604Z,3.80
2019-04-03T16:08:59.952Z,6.23
2019-04-03T16:11:31.316Z,5.57
2019-04-03T16:14:02.380Z,3.93
2019-04-03T16:16:32.955Z,3.53
2019-04-03T16:19:03.390Z,4.80
2019-04-03T16:21:34.229Z,5.43
2019-04-03T16:24:07.812Z,3.90
2019-04-03T16:26:38.012Z,3.50
2019-04-03T16:29:09.327Z,3.20
2019-04-03T16:31:40.782Z,3.33
2019-04-03T16:34:13.130Z,4.83
2019-04-03T16:36:43.643Z,6.00
2019-04-03T16:39:16.738Z,4.77
2019-04-03T16:41:46.147Z,4.23
2019-04-03T16:44:16.943Z,5.80
2019-04-03T16:46:47.348Z,3.60
2019-04-03T16:49:17.746Z,3.63
2019-04-03T16:51:48.162Z,3.90
2019-04-03T16:54:18.913Z,3.40
2019-04-03T16:56:50.040Z,4.50
2019-04-03T16:59:20.624Z,4.03
2019-04-03T17:01:51.286Z,4.73
2019-04-03T17:04:26.081Z,4.40
2019-04-03T17:06:53.750Z,4.77
2019-04-03T17:09:24.073Z,5.67
2019-04-03T17:11:54.832Z,5.30
2019-04-03T17:14:28.144Z,5.43
2019-04-03T17:17:00.082Z,5.40
2019-04-03T17:19:30.533Z,5.73
2019-04-03T17:22:05.821Z,4.80
2019-04-03T17:24:41.913Z,4.73
2019-04-03T17:27:07.547Z,5.40
2019-04-03T17:29:37.963Z,5.37
2019-04-03T17:32:09.549Z,5.57
2019-04-03T17:34:42.599Z,5.33
2019-04-03T17:37:12.378Z,6.53
2019-04-03T17:39:42.921Z,5.90
2019-04-03T17:42:13.382Z,7.30
2019-04-03T17:44:44.828Z,8.20
2019-04-03T17:47:15.798Z,6.90
2019-04-03T17:49:46.286Z,6.40
2019-04-03T17:52:16.754Z,8.67
2019-04-03T17:54:47.151Z,7.80
2019-04-03T17:57:17.673Z,7.87
2019-04-03T17:59:49.433Z,7.13
2019-04-03T18:02:20.000Z,7.57
2019-04-03T18:04:52.051Z,7.13
2019-04-03T18:07:22.323Z,8.00
2019-04-03T18:09:52.709Z,8.27
2019-04-03T18:12:25.837Z,7.73
2019-04-03T18:14:57.525Z,8.30
2019-04-03T18:17:29.936Z,7.97
2019-04-03T18:20:00.436Z,9.77
2019-04-03T18:22:31.248Z,8.70
2019-04-03T18:25:01.568Z,8.77
2019-04-03T18:27:33.487Z,9.17
2019-04-03T18:30:05.780Z,9.03
2019-04-03T18:32:36.047Z,9.60
2019-04-03T18:35:07.357Z,9.03
2019-04-03T18:37:41.005Z,9.63
2019-04-03T18:40:15.053Z,9.67
2019-04-03T18:42:45.078Z,9.63
2019-04-03T18:45:24.935Z,9.47
2019-04-03T18:47:50.729Z,9.77
2019-04-03T18:50:19.924Z,11.53
2019-04-03T18:52:50.401Z,10.37
2019-04-03T18:55:20.802Z,11.03
2019-04-03T18:57:51.452Z,10.50
2019-04-03T19:00:22.890Z,11.10
2019-04-03T19:02:53.282Z,10.77
2019-04-03T19:05:23.724Z,12.37
2019-04-03T19:07:55.690Z,11.63
2019-04-03T19:10:27.786Z,12.07
2019-04-03T19:12:58.219Z,12.23
2019-04-03T19:15:30.211Z,12.10
2019-04-03T19:18:02.561Z,11.57
2019-04-03T19:20:32.840Z,12.77
2019-04-03T19:23:04.989Z,12.17
2019-04-03T19:25:35.160Z,12.70
2019-04-03T19:28:05.525Z,12.57
2019-04-03T19:30:36.095Z,13.33
2019-04-03T19:33:07.854Z,13.77
2019-04-03T19:35:38.294Z,14.20
2019-04-03T19:38:08.667Z,12.97
2019-04-03T19:40:40.505Z,12.70
2019-04-03T19:43:14.544Z,12.60
2019-04-03T19:45:43.621Z,12.53
2019-04-03T19:48:14.083Z,12.97
2019-04-03T19:50:44.590Z,13.23
2019-04-03T19:53:15.073Z,14.27
2019-04-03T19:55:45.475Z,14.90
2019-04-03T19:58:15.943Z,15.03
2019-04-03T20:00:46.567Z,14.50
2019-04-03T20:03:16.899Z,13.30
2019-04-03T20:05:50.093Z,13.47
2019-04-03T20:08:19.447Z,15.30
2019-04-03T20:10:49.903Z,14.63
2019-04-03T20:13:20.461Z,14.07
2019-04-03T20:15:53.799Z,16.23
2019-04-03T20:18:25.590Z,14.87
2019-04-03T20:20:55.074Z,14.03
2019-04-03T20:23:25.398Z,14.60
2019-04-03T20:25:56.066Z,14.40
2019-04-03T20:28:26.722Z,13.10
2019-04-03T20:30:58.550Z,13.67
2019-04-03T20:33:28.839Z,12.10
2019-04-03T20:35:59.278Z,13.47
2019-04-03T20:38:31.150Z,12.97
2019-04-03T20:41:03.249Z,13.70
2019-04-03T20:43:33.649Z,13.50
2019-04-03T20:46:03.917Z,16.40
2019-04-03T20:48:34.406Z,14.07
2019-04-03T20:51:04.736Z,14.73
2019-04-03T20:53:35.110Z,15.47
2019-04-03T20:56:06.045Z,14.27
2019-04-03T20:58:39.980Z,15.30
2019-04-03T21:01:08.424Z,16.37
2019-04-03T21:03:38.876Z,16.17
2019-04-03T21:06:09.321Z,14.20
2019-04-03T21:08:40.711Z,13.23
2019-04-03T21:11:12.191Z,13.67
2019-04-03T21:13:42.522Z,14.77
2019-04-03T21:16:12.884Z,14.03
2019-04-03T21:18:43.167Z,14.80
2019-04-03T21:21:13.584Z,13.33
2019-04-03T21:23:43.868Z,13.07
2019-04-03T21:26:14.370Z,12.93
2019-04-03T21:28:45.372Z,12.03
2019-04-03T21:31:17.130Z,12.17
2019-04-03T21:33:47.741Z,11.30
2019-04-03T21:36:18.007Z,11.40
2019-04-03T21:38:48.299Z,12.03
2019-04-03T21:41:20.335Z,11.03
2019-04-03T21:43:50.501Z,11.23
2019-04-03T21:46:20.781Z,11.10
2019-04-03T21:48:51.110Z,10.87
2019-04-03T21:51:21.551Z,10.40
2019-04-03T21:53:51.946Z,10.53
2019-04-03T21:56:22.222Z,12.00
2019-04-03T21:58:52.515Z,11.70
2019-04-03T22:01:25.252Z,11.43
2019-04-03T22:03:55.663Z,10.67
2019-04-03T22:06:27.568Z,10.17
2019-04-03T22:09:00.459Z,9.30
2019-04-03T22:11:34.795Z,9.30
2019-04-03T22:14:16.744Z,9.63
2019-04-03T22:16:50.485Z,9.10
2019-04-03T22:19:19.208Z,9.50
2019-04-03T22:21:49.466Z,8.97
2019-04-03T22:24:19.954Z,9.27
2019-04-03T22:26:50.395Z,9.57
2019-04-03T22:29:20.650Z,9.13
2019-04-03T22:31:53.690Z,8.27
2019-04-03T22:34:24.408Z,8.63
2019-04-03T22:36:54.744Z,9.73
2019-04-03T22:39:25.063Z,9.10
2019-04-03T22:41:55.625Z,9.00
2019-04-03T22:44:25.987Z,8.50
2019-04-03T22:46:56.320Z,9.10
2019-04-03T22:49:26.564Z,9.80
2019-04-03T22:51:56.831Z,9.60
2019-04-03T22:54:27.152Z,8.63
2019-04-03T22:56:57.441Z,8.20
2019-04-03T22:59:27.817Z,9.27
2019-04-03T23:02:00.603Z,9.13
2019-04-03T23:04:30.236Z,9.60
2019-04-03T23:07:00.475Z,9.17
2019-04-03T23:09:30.725Z,8.40
2019-04-03T23:12:02.938Z,9.50
2019-04-03T23:14:34.144Z,7.97
2019-04-03T23:17:04.947Z,8.47
2019-04-03T23:19:35.462Z,8.80
2019-04-03T23:22:06.390Z,8.43
2019-04-03T23:24:36.670Z,8.70
2019-04-03T23:27:07.313Z,9.40
2019-04-03T23:29:39.252Z,7.63
2019-04-03T23:32:09.541Z,8.93
2019-04-03T23:34:39.794Z,8.77
2019-04-03T23:37:10.141Z,8.57
2019-04-03T23:39:40.543Z,8.30
2019-04-03T23:42:10.749Z,7.30
2019-04-03T23:44:42.128Z,8.77
2019-04-03T23:47:12.971Z,7.97
2019-04-03T23:49:43.249Z,7.70
2019-04-03T23:52:13.465Z,7.80
2019-04-03T23:54:43.869Z,8.37
2019-04-03T23:57:14.205Z,8.43
2019-04-03T23:59:44.991Z,8.03
